Terminal Aerodrome Forecast
Issued by NWS Grand Forks, ND

Home | Current Version | Previous Version | Text Only | Print | Product List | Glossary Off
Versions: 1 2 3 4 5 6 7 8 9 10 11 12 13 14 15 16 17 18

345
FTUS43 KFGF 221820 AAA
TAFGFK
TAF AMD
KGFK 221820Z 2218/2318 36015KT P6SM OVC014
     FM230100 02012KT P6SM OVC013
     FM230700 01009KT 5SM -RASN OVC012
     FM230900 01010KT 1SM -SN OVC012
     FM231600 06011KT P6SM OVC025=

USA.gov is the U.S. government's official web portal to all federal, state and local government web resources and services.